createdAt,value
2019-04-04T00:01:39.048Z,7.89
2019-04-04T00:04:07.360Z,7.84
2019-04-04T00:06:35.674Z,7.86
2019-04-04T00:09:06.864Z,7.90
2019-04-04T00:11:36.910Z,7.91
2019-04-04T00:14:05.198Z,7.94
2019-04-04T00:16:33.512Z,7.95
2019-04-04T00:19:01.887Z,7.96
2019-04-04T00:21:30.188Z,7.99
2019-04-04T00:23:58.466Z,8.01
2019-04-04T00:26:26.763Z,8.01
2019-04-04T00:28:55.057Z,8.00
2019-04-04T00:31:23.340Z,8.00
2019-04-04T00:33:51.654Z,7.97
2019-04-04T00:36:20.195Z,7.95
2019-04-04T00:38:48.513Z,7.93
2019-04-04T00:41:17.053Z,7.90
2019-04-04T00:43:45.379Z,7.89
2019-04-04T00:46:13.652Z,7.88
2019-04-04T00:48:41.962Z,7.87
2019-04-04T00:51:10.292Z,7.86
2019-04-04T00:53:38.691Z,7.86
2019-04-04T00:56:07.001Z,7.86
2019-04-04T00:58:35.291Z,7.87
2019-04-04T01:01:03.657Z,7.85
2019-04-04T01:03:31.951Z,7.85
2019-04-04T01:06:02.675Z,7.86
2019-04-04T01:08:30.274Z,7.85
2019-04-04T01:10:58.651Z,7.84
2019-04-04T01:13:27.697Z,7.79
2019-04-04T01:15:56.173Z,7.75
2019-04-04T01:18:24.463Z,7.74
2019-04-04T01:20:52.744Z,7.74
2019-04-04T01:23:21.047Z,7.74
2019-04-04T01:25:49.345Z,7.75
2019-04-04T01:28:17.671Z,7.73
2019-04-04T01:30:45.987Z,7.70
2019-04-04T01:33:14.267Z,7.70
2019-04-04T01:35:42.665Z,7.70
2019-04-04T01:38:10.948Z,7.68
2019-04-04T01:40:39.239Z,7.65
2019-04-04T01:43:09.232Z,7.63
2019-04-04T01:45:37.614Z,7.62
2019-04-04T01:48:05.924Z,7.60
2019-04-04T01:50:34.236Z,7.56
2019-04-04T01:53:02.527Z,7.52
2019-04-04T01:55:30.831Z,7.51
2019-04-04T01:57:59.115Z,7.51
2019-04-04T02:00:27.831Z,7.51
2019-04-04T02:02:56.133Z,7.51
2019-04-04T02:05:26.707Z,7.51
2019-04-04T02:07:54.518Z,7.53
2019-04-04T02:10:22.873Z,7.48
2019-04-04T02:12:51.176Z,7.45
2019-04-04T02:15:19.467Z,7.46
2019-04-04T02:17:48.042Z,7.43
2019-04-04T02:20:16.431Z,7.40
2019-04-04T02:22:44.782Z,7.36
2019-04-04T02:25:13.281Z,7.31
2019-04-04T02:27:41.812Z,7.29
2019-04-04T02:30:14.637Z,7.26
2019-04-04T02:32:40.412Z,7.21
2019-04-04T02:35:10.771Z,7.14
2019-04-04T02:37:38.899Z,7.05
2019-04-04T02:40:08.985Z,6.98
2019-04-04T02:42:38.086Z,6.93
2019-04-04T02:45:06.906Z,6.89
2019-04-04T02:47:35.210Z,6.84
2019-04-04T02:50:05.242Z,6.78
2019-04-04T02:52:33.586Z,6.69
2019-04-04T02:55:01.870Z,6.66
2019-04-04T02:57:30.154Z,6.63
2019-04-04T02:59:58.554Z,6.65
2019-04-04T03:02:27.077Z,6.65
2019-04-04T03:04:55.430Z,6.62
2019-04-04T03:07:23.998Z,6.54
2019-04-04T03:09:52.307Z,6.49
2019-04-04T03:12:20.626Z,6.52
2019-04-04T03:14:50.750Z,6.52
2019-04-04T03:17:19.244Z,6.51
2019-04-04T03:19:47.558Z,6.49
2019-04-04T03:22:15.863Z,6.51
2019-04-04T03:24:45.135Z,6.50
2019-04-04T03:27:13.999Z,6.50
2019-04-04T03:29:42.342Z,6.47
2019-04-04T03:32:14.608Z,6.47
2019-04-04T03:34:47.870Z,6.47
2019-04-04T03:37:12.399Z,6.50
2019-04-04T03:39:40.970Z,6.52
2019-04-04T03:42:09.293Z,6.52
2019-04-04T03:44:37.600Z,6.51
2019-04-04T03:47:09.865Z,6.43
2019-04-04T03:49:36.682Z,6.35
2019-04-04T03:52:04.998Z,6.38
2019-04-04T03:54:33.625Z,6.42
2019-04-04T03:57:01.933Z,6.44
2019-04-04T03:59:32.274Z,6.46
2019-04-04T04:02:00.257Z,6.46
2019-04-04T04:04:28.590Z,6.46
2019-04-04T04:06:56.906Z,6.45
2019-04-04T04:09:26.342Z,6.43
2019-04-04T04:11:55.210Z,6.43
2019-04-04T04:14:23.531Z,6.39
2019-04-04T04:16:51.824Z,6.35
2019-04-04T04:19:24.014Z,6.33
2019-04-04T04:21:50.153Z,6.30
2019-04-04T04:24:18.491Z,6.31
2019-04-04T04:26:46.843Z,6.31
2019-04-04T04:29:15.439Z,6.31
2019-04-04T04:31:48.277Z,6.30
2019-04-04T04:34:13.974Z,6.29
2019-04-04T04:36:42.269Z,6.29
2019-04-04T04:39:10.607Z,6.30
2019-04-04T04:41:38.890Z,6.32
2019-04-04T04:44:07.238Z,6.32
2019-04-04T04:46:35.844Z,6.31
2019-04-04T04:49:04.428Z,6.30
2019-04-04T04:51:33.109Z,6.26
2019-04-04T04:54:01.422Z,6.25
2019-04-04T04:56:31.386Z,6.25
2019-04-04T04:58:59.766Z,6.24
2019-04-04T05:01:28.347Z,6.15
2019-04-04T05:03:57.264Z,6.04
2019-04-04T05:06:25.651Z,6.02
2019-04-04T05:08:53.928Z,6.02
2019-04-04T05:11:22.236Z,6.01
2019-04-04T05:13:50.525Z,5.99
2019-04-04T05:16:18.845Z,5.98
2019-04-04T05:18:48.212Z,5.99
2019-04-04T05:21:24.820Z,6.02
2019-04-04T05:23:47.600Z,6.05
2019-04-04T05:26:16.092Z,6.10
2019-04-04T05:28:44.396Z,6.15
2019-04-04T05:31:12.733Z,6.20
2019-04-04T05:33:41.022Z,6.26
2019-04-04T05:36:09.372Z,6.31
2019-04-04T05:38:37.663Z,6.33
2019-04-04T05:41:06.039Z,6.33
2019-04-04T05:43:35.264Z,6.36
2019-04-04T05:46:04.788Z,6.35
2019-04-04T05:48:33.096Z,6.35
2019-04-04T05:51:01.764Z,6.36
2019-04-04T05:53:30.061Z,6.36
2019-04-04T05:55:58.420Z,6.38
2019-04-04T05:58:26.730Z,6.35
2019-04-04T06:00:57.747Z,6.36
2019-04-04T06:03:25.417Z,6.37
2019-04-04T06:05:53.712Z,6.35
2019-04-04T06:08:22.503Z,6.37
2019-04-04T06:10:50.925Z,6.38
2019-04-04T06:13:22.140Z,6.43
2019-04-04T06:15:49.179Z,6.45
2019-04-04T06:18:17.498Z,6.46
2019-04-04T06:20:48.361Z,6.48
2019-04-04T06:23:16.150Z,6.50
2019-04-04T06:25:44.614Z,6.52
2019-04-04T06:28:12.933Z,6.56
2019-04-04T06:30:43.502Z,6.58
2019-04-04T06:33:11.289Z,6.61
2019-04-04T06:35:40.115Z,6.66
2019-04-04T06:38:08.547Z,6.69
2019-04-04T06:40:37.146Z,6.71
2019-04-04T06:43:10.304Z,6.74
2019-04-04T06:45:35.554Z,6.75
2019-04-04T06:48:03.970Z,6.78
2019-04-04T06:50:32.270Z,6.78
2019-04-04T06:53:01.177Z,6.80
2019-04-04T06:55:29.745Z,6.83
2019-04-04T06:57:58.310Z,6.89
2019-04-04T07:00:27.032Z,6.94
2019-04-04T07:02:56.300Z,6.98
2019-04-04T07:05:24.758Z,7.04
2019-04-04T07:07:53.112Z,7.10
2019-04-04T07:10:22.103Z,7.19
2019-04-04T07:12:50.506Z,7.25
2019-04-04T07:15:18.784Z,7.30
2019-04-04T07:17:47.098Z,7.33
2019-04-04T07:20:17.090Z,7.36
2019-04-04T07:22:45.607Z,7.38
2019-04-04T07:25:14.191Z,7.39
2019-04-04T07:27:42.981Z,7.41
2019-04-04T07:30:11.747Z,7.44
2019-04-04T07:32:41.559Z,7.49
2019-04-04T07:35:10.132Z,7.54
2019-04-04T07:37:38.445Z,7.60
2019-04-04T07:40:06.968Z,7.65
2019-04-04T07:42:35.285Z,7.68
2019-04-04T07:45:06.291Z,7.72
2019-04-04T07:47:34.605Z,7.75
2019-04-04T07:50:02.906Z,7.76
2019-04-04T07:52:33.160Z,7.76
2019-04-04T07:55:01.928Z,7.74
2019-04-04T07:57:30.526Z,7.67
2019-04-04T07:59:58.867Z,7.63
2019-04-04T08:02:27.163Z,7.61
2019-04-04T08:04:55.823Z,7.55
2019-04-04T08:07:24.294Z,7.46
2019-04-04T08:09:52.857Z,7.40
2019-04-04T08:12:21.156Z,7.26
2019-04-04T08:14:49.459Z,7.18
2019-04-04T08:17:19.015Z,7.13
2019-04-04T08:19:59.113Z,7.16
2019-04-04T08:22:17.945Z,7.20
2019-04-04T08:24:46.350Z,7.23
2019-04-04T08:27:14.736Z,7.29
2019-04-04T08:29:43.041Z,7.40
2019-04-04T08:32:11.584Z,7.50
2019-04-04T08:34:40.286Z,7.60
2019-04-04T08:37:09.040Z,7.70
2019-04-04T08:39:37.355Z,7.77
2019-04-04T08:42:05.680Z,7.76
2019-04-04T08:44:33.985Z,7.76
2019-04-04T08:47:02.267Z,7.76
2019-04-04T08:49:30.834Z,7.73
2019-04-04T08:51:59.175Z,7.73
2019-04-04T08:54:27.468Z,7.75
2019-04-04T08:56:55.799Z,7.78
2019-04-04T08:59:24.085Z,7.81
2019-04-04T09:01:52.401Z,7.83
2019-04-04T09:04:23.918Z,7.87
2019-04-04T09:06:51.142Z,7.91
2019-04-04T09:09:19.442Z,7.99
2019-04-04T09:11:48.078Z,8.05
2019-04-04T09:14:16.674Z,8.11
2019-04-04T09:16:44.996Z,8.14
2019-04-04T09:19:13.276Z,8.19
2019-04-04T09:21:41.591Z,8.24
2019-04-04T09:24:09.996Z,8.26
2019-04-04T09:26:38.296Z,8.28
2019-04-04T09:29:06.605Z,8.33
2019-04-04T09:31:35.215Z,8.39
2019-04-04T09:34:03.540Z,8.45
2019-04-04T09:36:31.842Z,8.47
2019-04-04T09:39:00.156Z,8.41
2019-04-04T09:41:28.440Z,8.34
2019-04-04T09:43:57.137Z,8.28
2019-04-04T09:46:25.445Z,8.22
2019-04-04T09:48:53.741Z,8.13
2019-04-04T09:51:22.023Z,8.12
2019-04-04T09:53:53.374Z,8.13
2019-04-04T09:56:20.679Z,8.15
2019-04-04T09:58:48.980Z,8.15
2019-04-04T10:01:17.277Z,8.19
2019-04-04T10:03:45.588Z,8.24
2019-04-04T10:06:13.883Z,8.22
2019-04-04T10:08:42.253Z,8.19
2019-04-04T10:11:10.570Z,8.21
2019-04-04T10:13:38.867Z,8.21
2019-04-04T10:16:07.313Z,8.19
2019-04-04T10:18:35.549Z,8.17
2019-04-04T10:21:11.921Z,8.13
2019-04-04T10:23:34.235Z,8.07
2019-04-04T10:26:02.619Z,7.93
2019-04-04T10:28:30.940Z,7.90
2019-04-04T10:30:59.263Z,7.93
2019-04-04T10:33:28.113Z,7.97
2019-04-04T10:35:56.494Z,8.01
2019-04-04T10:38:24.814Z,8.07
2019-04-04T10:40:53.093Z,8.08
2019-04-04T10:43:21.413Z,8.12
2019-04-04T10:45:49.698Z,8.21
2019-04-04T10:48:18.326Z,8.32
2019-04-04T10:50:46.629Z,8.35
2019-04-04T10:53:14.947Z,8.28
2019-04-04T10:55:43.223Z,8.20
2019-04-04T10:58:11.897Z,8.07
2019-04-04T11:00:40.320Z,7.92
2019-04-04T11:03:09.017Z,7.70
2019-04-04T11:05:37.599Z,7.55
2019-04-04T11:08:05.928Z,7.50
2019-04-04T11:10:34.567Z,7.59
2019-04-04T11:13:03.213Z,7.61
2019-04-04T11:15:31.496Z,7.76
2019-04-04T11:17:59.812Z,7.89
2019-04-04T11:20:28.111Z,7.86
2019-04-04T11:22:56.426Z,7.82
2019-04-04T11:25:25.031Z,7.82
2019-04-04T11:27:54.164Z,7.79
2019-04-04T11:30:22.532Z,7.74
2019-04-04T11:32:51.098Z,7.75
2019-04-04T11:35:19.715Z,7.75
2019-04-04T11:37:48.087Z,7.79
2019-04-04T11:40:16.423Z,7.84
2019-04-04T11:42:44.700Z,7.91
2019-04-04T11:45:13.312Z,7.93
2019-04-04T11:47:41.610Z,7.96
2019-04-04T11:50:10.258Z,8.00
2019-04-04T11:52:38.563Z,8.02
2019-04-04T11:55:07.133Z,7.97
2019-04-04T11:57:35.525Z,7.96
2019-04-04T12:00:06.423Z,8.02
2019-04-04T12:02:34.727Z,8.14
2019-04-04T12:05:03.024Z,8.23
2019-04-04T12:07:31.334Z,8.32
2019-04-04T12:10:07.239Z,8.40
2019-04-04T12:12:29.672Z,8.49
2019-04-04T12:14:58.059Z,8.47
2019-04-04T12:17:26.537Z,8.53
2019-04-04T12:19:54.831Z,8.64
2019-04-04T12:22:23.182Z,8.74
2019-04-04T12:24:51.477Z,8.76
2019-04-04T12:27:20.136Z,8.71
2019-04-04T12:29:48.722Z,8.71
2019-04-04T12:32:17.355Z,8.75
2019-04-04T12:34:45.652Z,8.81
2019-04-04T12:37:14.185Z,8.88
2019-04-04T12:39:44.415Z,8.89
2019-04-04T12:42:12.962Z,8.87
2019-04-04T12:44:41.267Z,8.74
2019-04-04T12:47:09.826Z,8.75
2019-04-04T12:49:38.224Z,8.79
2019-04-04T12:52:06.781Z,8.90
2019-04-04T12:54:35.111Z,8.98
2019-04-04T12:57:03.404Z,9.03
2019-04-04T12:59:31.746Z,9.05
2019-04-04T13:02:00.503Z,9.05
2019-04-04T13:04:31.879Z,9.05
2019-04-04T13:06:58.829Z,9.01
2019-04-04T13:09:27.227Z,8.98
2019-04-04T13:11:55.677Z,8.99
2019-04-04T13:14:23.977Z,9.04
2019-04-04T13:16:52.269Z,9.07
2019-04-04T13:19:20.570Z,9.13
2019-04-04T13:21:48.888Z,9.18
2019-04-04T13:24:17.183Z,9.16
2019-04-04T13:26:45.551Z,9.12
2019-04-04T13:29:13.954Z,9.02
2019-04-04T13:31:42.242Z,8.91
2019-04-04T13:34:10.543Z,8.85
2019-04-04T13:36:38.827Z,8.81
2019-04-04T13:39:09.840Z,8.81
2019-04-04T13:41:38.286Z,8.81
2019-04-04T13:44:06.561Z,8.79
2019-04-04T13:46:35.105Z,8.74
2019-04-04T13:49:03.687Z,8.68
2019-04-04T13:51:32.111Z,8.63
2019-04-04T13:54:00.385Z,8.55
2019-04-04T13:56:29.377Z,8.40
2019-04-04T13:59:01.138Z,8.27
2019-04-04T14:01:28.067Z,8.23
2019-04-04T14:03:56.833Z,8.24
2019-04-04T14:06:25.139Z,8.27
2019-04-04T14:08:53.436Z,8.31
2019-04-04T14:11:22.080Z,8.31
2019-04-04T14:13:50.392Z,8.31
2019-04-04T14:16:19.034Z,8.32
2019-04-04T14:18:47.629Z,8.33
2019-04-04T14:21:16.298Z,8.31
2019-04-04T14:23:45.390Z,8.33
2019-04-04T14:26:13.810Z,8.37
2019-04-04T14:28:42.117Z,8.40
2019-04-04T14:31:10.399Z,8.40
2019-04-04T14:33:39.018Z,8.40
2019-04-04T14:36:07.301Z,8.40
2019-04-04T14:38:35.615Z,8.41
2019-04-04T14:41:11.038Z,8.40
2019-04-04T14:43:34.237Z,8.38
2019-04-04T14:46:02.782Z,8.35
2019-04-04T14:48:31.444Z,8.26
2019-04-04T14:50:59.737Z,8.30
2019-04-04T14:53:28.030Z,8.30
2019-04-04T14:55:56.321Z,8.26
2019-04-04T14:58:24.954Z,8.27
2019-04-04T15:00:53.478Z,8.33
2019-04-04T15:03:21.867Z,8.37
2019-04-04T15:05:50.147Z,8.47
2019-04-04T15:08:18.450Z,8.54
2019-04-04T15:10:46.763Z,8.54
2019-04-04T15:13:15.168Z,8.54
2019-04-04T15:16:03.189Z,8.45
2019-04-04T15:18:31.473Z,8.41
2019-04-04T15:20:59.783Z,8.40
2019-04-04T15:23:28.079Z,8.32
2019-04-04T15:25:56.379Z,8.31
2019-04-04T15:28:26.081Z,8.26
2019-04-04T15:30:54.533Z,8.25
2019-04-04T15:33:22.821Z,8.23
2019-04-04T15:35:51.111Z,8.21
2019-04-04T15:38:19.411Z,8.19
2019-04-04T15:40:47.697Z,8.15
2019-04-04T15:43:16.166Z,8.13
2019-04-04T15:45:44.474Z,8.18
2019-04-04T15:48:13.217Z,8.26
2019-04-04T15:50:41.797Z,8.30
2019-04-04T15:53:10.373Z,8.29
2019-04-04T15:55:38.686Z,8.28
2019-04-04T15:58:07.063Z,8.33
2019-04-04T16:00:35.458Z,8.37
2019-04-04T16:03:04.120Z,8.40
2019-04-04T16:05:32.900Z,8.44
2019-04-04T16:08:01.251Z,8.46
2019-04-04T16:10:29.478Z,8.45
2019-04-04T16:12:58.121Z,8.41
2019-04-04T16:15:26.485Z,8.46
2019-04-04T16:17:55.191Z,8.51
2019-04-04T16:20:23.499Z,8.51
2019-04-04T16:22:51.808Z,8.47
2019-04-04T16:25:20.094Z,8.45
2019-04-04T16:27:48.396Z,8.37
2019-04-04T16:30:16.789Z,8.29
2019-04-04T16:32:45.337Z,8.29
2019-04-04T16:35:14.047Z,8.29
2019-04-04T16:37:42.325Z,8.33
2019-04-04T16:40:10.993Z,8.36
2019-04-04T16:42:39.284Z,8.39
2019-04-04T16:45:08.025Z,8.41
2019-04-04T16:47:36.319Z,8.40
2019-04-04T16:50:06.202Z,8.30
2019-04-04T16:52:34.848Z,8.23
2019-04-04T16:55:03.922Z,8.14
2019-04-04T16:57:32.519Z,8.11
2019-04-04T17:00:00.806Z,8.12
2019-04-04T17:02:29.360Z,8.15
2019-04-04T17:04:57.643Z,8.16
2019-04-04T17:07:26.194Z,8.19
2019-04-04T17:09:54.497Z,8.22
2019-04-04T17:12:22.795Z,8.21
2019-04-04T17:14:51.086Z,8.21
2019-04-04T17:17:19.387Z,8.19
2019-04-04T17:19:47.931Z,8.16
2019-04-04T17:22:16.249Z,8.15
2019-04-04T17:24:45.545Z,8.09
2019-04-04T17:27:13.837Z,8.03
2019-04-04T17:29:42.149Z,7.99
2019-04-04T17:32:10.871Z,7.99
2019-04-04T17:34:39.875Z,7.93
2019-04-04T17:37:08.189Z,7.91
2019-04-04T17:39:36.539Z,7.91
2019-04-04T17:42:04.874Z,7.90
2019-04-04T17:44:33.192Z,7.89
2019-04-04T17:47:02.134Z,7.89
2019-04-04T17:49:30.518Z,7.90
2019-04-04T17:51:58.791Z,7.90
2019-04-04T17:54:27.499Z,7.84
2019-04-04T17:56:57.018Z,7.78
2019-04-04T17:59:25.397Z,7.78
2019-04-04T18:01:53.671Z,7.73
2019-04-04T18:04:21.949Z,7.73
2019-04-04T18:06:50.273Z,7.71
2019-04-04T18:09:30.845Z,7.71
2019-04-04T18:11:48.850Z,7.72
2019-04-04T18:14:17.169Z,7.73
2019-04-04T18:16:45.457Z,7.74
2019-04-04T18:19:13.794Z,7.75
2019-04-04T18:21:42.165Z,7.76
2019-04-04T18:24:10.799Z,7.78
2019-04-04T18:26:39.416Z,7.79
2019-04-04T18:29:07.659Z,7.79
2019-04-04T18:31:35.950Z,7.80
2019-04-04T18:34:07.292Z,7.79
2019-04-04T18:36:34.724Z,7.77
2019-04-04T18:39:04.918Z,7.75
2019-04-04T18:41:33.273Z,7.76
2019-04-04T18:44:01.579Z,7.75
2019-04-04T18:46:29.929Z,7.76
2019-04-04T18:48:58.366Z,7.77
2019-04-04T18:51:26.671Z,7.76
2019-04-04T18:53:54.969Z,7.75
2019-04-04T18:56:23.616Z,7.76
2019-04-04T18:58:51.908Z,7.76
2019-04-04T19:01:20.200Z,7.76
2019-04-04T19:03:48.515Z,7.76
2019-04-04T19:06:16.813Z,7.75
2019-04-04T19:08:45.396Z,7.75
2019-04-04T19:11:13.968Z,7.75
2019-04-04T19:13:44.590Z,7.75
2019-04-04T19:16:12.469Z,7.75
2019-04-04T19:18:40.764Z,7.76
2019-04-04T19:21:09.063Z,7.77
2019-04-04T19:23:48.645Z,7.75
2019-04-04T19:26:07.449Z,7.74
2019-04-04T19:28:35.765Z,7.71
2019-04-04T19:31:05.095Z,7.67
2019-04-04T19:33:33.396Z,7.63
2019-04-04T19:36:01.976Z,7.62
2019-04-04T19:38:30.555Z,7.62
2019-04-04T19:40:58.852Z,7.63
2019-04-04T19:43:27.167Z,7.64
2019-04-04T19:45:55.464Z,7.65
2019-04-04T19:48:24.062Z,7.66
2019-04-04T19:50:52.363Z,7.67
2019-04-04T19:53:20.671Z,7.67
2019-04-04T19:55:48.961Z,7.64
2019-04-04T19:58:17.260Z,7.63
2019-04-04T20:00:46.064Z,7.62
2019-04-04T20:03:14.359Z,7.62
2019-04-04T20:05:44.513Z,7.63
2019-04-04T20:08:13.267Z,7.63
2019-04-04T20:10:41.681Z,7.62
2019-04-04T20:13:09.997Z,7.61
2019-04-04T20:15:38.310Z,7.58
2019-04-04T20:18:06.590Z,7.56
2019-04-04T20:20:34.883Z,7.57
2019-04-04T20:23:03.535Z,7.56
2019-04-04T20:25:31.871Z,7.56
2019-04-04T20:28:00.152Z,7.55
2019-04-04T20:30:36.891Z,7.54
2019-04-04T20:33:05.247Z,7.55
2019-04-04T20:35:33.614Z,7.56
2019-04-04T20:38:02.169Z,7.57
2019-04-04T20:40:30.446Z,7.55
2019-04-04T20:42:59.044Z,7.56
2019-04-04T20:45:27.345Z,7.57
2019-04-04T20:47:55.662Z,7.56
2019-04-04T20:50:23.945Z,7.56
2019-04-04T20:52:52.259Z,7.53
2019-04-04T20:55:20.548Z,7.52
2019-04-04T20:57:48.879Z,7.50
2019-04-04T21:00:17.228Z,7.50
2019-04-04T21:02:45.523Z,7.49
2019-04-04T21:05:14.180Z,7.47
2019-04-04T21:07:42.484Z,7.47
2019-04-04T21:10:10.836Z,7.48
2019-04-04T21:12:39.206Z,7.49
2019-04-04T21:15:07.694Z,7.50
2019-04-04T21:17:36.454Z,7.51
2019-04-04T21:20:06.907Z,7.49
2019-04-04T21:22:35.205Z,7.51
2019-04-04T21:25:03.780Z,7.50
2019-04-04T21:27:32.071Z,7.52
2019-04-04T21:30:00.920Z,7.51
2019-04-04T21:32:29.194Z,7.50
2019-04-04T21:34:57.491Z,7.51
2019-04-04T21:37:26.083Z,7.53
2019-04-04T21:39:54.383Z,7.52
2019-04-04T21:42:23.101Z,7.50
2019-04-04T21:44:51.421Z,7.49
2019-04-04T21:47:19.716Z,7.48
2019-04-04T21:49:48.352Z,7.45
2019-04-04T21:52:16.660Z,7.37
2019-04-04T21:54:44.964Z,7.30
2019-04-04T21:57:13.580Z,7.30
2019-04-04T21:59:41.879Z,7.31
2019-04-04T22:02:10.221Z,7.33
2019-04-04T22:04:38.536Z,7.35
2019-04-04T22:07:07.009Z,7.34
2019-04-04T22:09:35.420Z,7.33
2019-04-04T22:12:04.095Z,7.32
2019-04-04T22:14:32.396Z,7.31
2019-04-04T22:17:01.046Z,7.30
2019-04-04T22:19:29.367Z,7.29
2019-04-04T22:21:57.758Z,7.31
2019-04-04T22:24:26.087Z,7.32
2019-04-04T22:26:54.392Z,7.33
2019-04-04T22:29:22.748Z,7.30
2019-04-04T22:31:51.049Z,7.30
2019-04-04T22:34:19.417Z,7.29
2019-04-04T22:36:47.717Z,7.29
2019-04-04T22:39:16.450Z,7.30
2019-04-04T22:41:45.137Z,7.31
2019-04-04T22:44:13.457Z,7.32
2019-04-04T22:46:41.792Z,7.33
2019-04-04T22:49:10.113Z,7.35
2019-04-04T22:51:38.434Z,7.34
2019-04-04T22:54:06.766Z,7.34
2019-04-04T22:56:35.104Z,7.34
2019-04-04T22:59:03.422Z,7.33
2019-04-04T23:01:31.740Z,7.34
2019-04-04T23:04:00.139Z,7.33
2019-04-04T23:06:28.463Z,7.31
2019-04-04T23:08:56.781Z,7.32
2019-04-04T23:11:25.478Z,7.30
2019-04-04T23:13:53.794Z,7.30
2019-04-04T23:16:22.147Z,7.29
2019-04-04T23:18:50.478Z,7.29
2019-04-04T23:21:18.805Z,7.30
2019-04-04T23:23:47.134Z,7.30
2019-04-04T23:26:15.468Z,7.30
2019-04-04T23:28:43.775Z,7.29
2019-04-04T23:31:12.130Z,7.27
2019-04-04T23:33:40.458Z,7.26
2019-04-04T23:36:08.797Z,7.26
2019-04-04T23:38:37.149Z,7.25
2019-04-04T23:41:05.807Z,7.27
2019-04-04T23:43:34.146Z,7.29
2019-04-04T23:46:02.496Z,7.28
2019-04-04T23:48:30.829Z,7.29
2019-04-04T23:50:59.187Z,7.30
2019-04-04T23:53:27.529Z,7.30
2019-04-04T23:55:56.287Z,7.31
2019-04-04T23:58:24.564Z,7.30
